Time;durP1;ratioP1;P1;durP2;ratioP2;P2;SDS_P1;SDS_P2;PMS_P1;PMS_P2;Temp;Humidity;BMP_temperature;BMP_pressure;BME280_temperature;BME280_humidity;BME280_pressure;Samples;Min_cycle;Max_cycle;Signal;HPM_P1;HPM_P2
2023/01/17 00:00:16;;;;;;;3.03;1.55;;;3.40;99.90;;;;;;5084430;28;20078;-65
2023/01/17 00:02:42;;;;;;;2.92;1.25;;;3.50;99.90;;;;;;5090804;28;20055;-65
2023/01/17 00:10:39;;;;;;;1.97;1.10;;;3.60;99.90;;;;;;5073801;28;20511;-64
2023/01/17 00:13:05;;;;;;;2.85;1.42;;;3.40;99.90;;;;;;5071057;28;20060;-62
2023/01/17 00:15:31;;;;;;;3.95;1.50;;;3.30;99.90;;;;;;5071470;28;20121;-63
2023/01/17 00:17:57;;;;;;;1.90;1.25;;;3.30;99.90;;;;;;5078956;28;20558;-65
2023/01/17 00:26:14;;;;;;;1.83;1.30;;;3.60;99.90;;;;;;5054015;28;20441;-64
2023/01/17 01:35:49;;;;;;;1.70;1.25;;;2.60;99.90;;;;;;5071345;28;20024;-63
2023/01/17 01:38:16;;;;;;;1.60;1.05;;;2.50;99.90;;;;;;5070660;28;20021;-62
2023/01/17 01:40:44;;;;;;;2.13;1.45;;;2.50;99.90;;;;;;5070669;28;20031;-63
2023/01/17 01:43:12;;;;;;;4.40;1.10;;;2.70;99.90;;;;;;5056326;28;20148;-62
2023/01/17 01:45:38;;;;;;;2.70;1.90;;;2.60;99.90;;;;;;5050523;28;20029;-63
2023/01/17 01:48:31;;;;;;;2.17;1.20;;;2.60;99.90;;;;;;5050679;28;20094;-62
2023/01/17 01:50:57;;;;;;;2.00;0.98;;;2.70;99.90;;;;;;5050578;28;20021;-60
2023/01/17 01:53:24;;;;;;;2.70;1.75;;;2.70;99.90;;;;;;5049998;28;20029;-65
2023/01/17 01:55:51;;;;;;;6.28;2.08;;;3.10;99.90;;;;;;5055078;28;20052;-65
2023/01/17 01:58:26;;;;;;;2.35;1.65;;;2.90;99.90;;;;;;5073931;28;20427;-64
2023/01/17 02:00:51;;;;;;;3.78;1.27;;;2.70;99.90;;;;;;5074155;28;20107;-64
2023/01/17 02:03:22;;;;;;;2.88;1.50;;;2.60;99.90;;;;;;5073536;28;20132;-64
2023/01/17 02:05:48;;;;;;;2.53;1.50;;;2.60;99.90;;;;;;5073972;28;20021;-63
2023/01/17 02:08:16;;;;;;;2.08;1.25;;;2.60;99.90;;;;;;5073792;28;20484;-65
2023/01/17 02:10:45;;;;;;;2.60;1.20;;;2.50;99.90;;;;;;5072093;28;20476;-63
2023/01/17 02:13:14;;;;;;;2.03;0.98;;;2.90;99.90;;;;;;5086899;23;20102;-61
2023/01/17 02:15:56;;;;;;;1.90;1.10;;;3.30;99.90;;;;;;5073592;28;20028;-64
2023/01/17 02:18:50;;;;;;;2.88;1.30;;;2.60;99.90;;;;;;5079993;28;20031;-65
2023/01/17 02:21:31;;;;;;;1.42;0.98;;;2.50;99.90;;;;;;5093757;28;20031;-65
2023/01/17 02:24:46;;;;;;;4.00;1.33;;;2.40;99.90;;;;;;5093303;28;20034;-61
2023/01/17 02:27:23;;;;;;;1.73;1.00;;;2.50;99.90;;;;;;5066992;28;20514;-64
2023/01/17 02:29:57;;;;;;;1.77;1.23;;;2.50;99.90;;;;;;5065167;28;20115;-63
2023/01/17 02:32:32;;;;;;;2.67;1.20;;;2.60;99.90;;;;;;5093255;28;20043;-63
2023/01/17 02:35:03;;;;;;;;;;;2.70;99.90;;;;;;5092313;28;20032;-65
2023/01/17 02:38:15;;;;;;;2.65;1.30;;;2.80;99.90;;;;;;5093374;28;19959;-65
2023/01/17 02:40:48;;;;;;;2.60;1.63;;;2.80;99.90;;;;;;5030721;28;20022;-64
2023/01/17 02:43:17;;;;;;;2.97;1.50;;;2.80;99.90;;;;;;5087890;28;20040;-64
2023/01/17 02:45:44;;;;;;;2.58;1.42;;;2.80;99.90;;;;;;5078552;28;20032;-66
2023/01/17 02:48:12;;;;;;;9.25;1.30;;;2.90;99.90;;;;;;5072748;28;20029;-64
2023/01/17 02:50:45;;;;;;;2.20;1.30;;;2.90;99.90;;;;;;5070271;28;20744;-62
2023/01/17 02:53:34;;;;;;;1.83;1.15;;;3.00;99.90;;;;;;5065794;28;20495;-61
2023/01/17 02:56:24;;;;;;;2.33;1.10;;;3.00;99.90;;;;;;5072883;28;20028;-64
2023/01/17 02:58:58;;;;;;;5.85;1.55;;;3.00;99.90;;;;;;5072899;28;20078;-65
2023/01/17 03:01:52;;;;;;;2.92;1.73;;;3.00;99.90;;;;;;5071897;28;20031;-63
2023/01/17 03:04:33;;;;;;;2.65;1.50;;;3.10;99.90;;;;;;5072152;28;20032;-63
2023/01/17 03:07:16;;;;;;;2.72;1.42;;;3.20;99.90;;;;;;5078152;28;20032;-63
2023/01/17 03:09:45;;;;;;;4.45;1.98;;;3.30;99.90;;;;;;5092369;28;20020;-67
2023/01/17 03:12:11;;;;;;;3.22;2.00;;;3.30;99.90;;;;;;5092388;28;20020;-64
2023/01/17 03:14:37;;;;;;;7.18;2.40;;;3.30;99.90;;;;;;5092354;28;20036;-63
2023/01/17 03:17:03;;;;;;;2.88;1.70;;;3.40;99.90;;;;;;5087998;28;20563;-63
2023/01/17 03:19:30;;;;;;;2.90;1.67;;;3.40;99.90;;;;;;5052267;28;20025;-63
2023/01/17 03:21:56;;;;;;;3.38;1.83;;;3.50;99.90;;;;;;5052629;28;20051;-62
2023/01/17 03:24:21;;;;;;;2.72;1.73;;;3.50;99.90;;;;;;5051802;28;20450;-63
2023/01/17 03:26:47;;;;;;;2.17;1.48;;;3.70;99.90;;;;;;5052175;28;20136;-63
2023/01/17 03:29:14;;;;;;;3.40;1.90;;;3.70;99.90;;;;;;5052343;28;20027;-64
2023/01/17 03:31:39;;;;;;;6.10;1.83;;;3.80;99.90;;;;;;5052060;28;20477;-61
2023/01/17 03:34:05;;;;;;;2.70;1.98;;;3.90;99.90;;;;;;5057269;28;20035;-64
2023/01/17 03:36:31;;;;;;;2.05;1.30;;;3.90;99.90;;;;;;5072057;28;20059;-66
2023/01/17 03:38:56;;;;;;;1.80;1.10;;;3.90;99.90;;;;;;5072095;28;20112;-64
2023/01/17 03:41:22;;;;;;;1.92;1.00;;;3.90;99.90;;;;;;5071918;28;20028;-63
2023/01/17 03:43:48;;;;;;;2.45;1.27;;;3.80;99.90;;;;;;5071523;28;20053;-65
2023/01/17 03:46:27;;;;;;;3.03;1.60;;;3.90;99.90;;;;;;5071568;28;20548;-65
2023/01/17 03:48:53;;;;;;;3.15;1.20;;;4.00;99.90;;;;;;5071896;28;20024;-64
2023/01/17 03:51:19;;;;;;;2.53;1.30;;;4.00;99.90;;;;;;5059279;28;20025;-64
2023/01/17 03:53:48;;;;;;;2.13;1.20;;;4.10;99.90;;;;;;5051392;28;20036;-63
2023/01/17 03:56:14;;;;;;;2.28;1.27;;;4.10;99.90;;;;;;5051558;28;20029;-62
2023/01/17 03:58:40;;;;;;;1.70;0.98;;;4.10;99.90;;;;;;5051775;28;20036;-60
2023/01/17 04:01:06;;;;;;;5.22;1.27;;;4.10;99.90;;;;;;5051416;28;20099;-60
2023/01/17 04:03:32;;;;;;;2.10;1.30;;;4.20;99.90;;;;;;5051133;28;20052;-65
2023/01/17 04:05:58;;;;;;;2.53;1.00;;;4.20;99.90;;;;;;5051531;28;20021;-60
2023/01/17 04:08:23;;;;;;;1.92;1.00;;;4.20;99.90;;;;;;5054056;28;20133;-64
2023/01/17 04:10:49;;;;;;;1.65;0.95;;;4.20;99.90;;;;;;5051577;28;20029;-64
2023/01/17 04:13:15;;;;;;;2.30;1.10;;;4.30;99.90;;;;;;5050964;28;20025;-64
2023/01/17 04:15:44;;;;;;;1.55;1.00;;;4.20;99.90;;;;;;5051524;28;20021;-64
2023/01/17 04:18:11;;;;;;;4.15;0.77;;;4.30;99.90;;;;;;5050707;28;20039;-63
2023/01/17 04:20:38;;;;;;;1.88;1.00;;;4.30;99.90;;;;;;5051306;28;20095;-64
2023/01/17 04:23:05;;;;;;;1.02;0.68;;;4.30;99.90;;;;;;5051440;28;20140;-64
2023/01/17 04:25:31;;;;;;;1.10;0.70;;;4.30;99.90;;;;;;5071131;28;20451;-63
2023/01/17 04:27:58;;;;;;;0.77;0.60;;;4.40;99.90;;;;;;5071087;28;20024;-63
2023/01/17 04:30:24;;;;;;;1.50;0.90;;;4.30;99.90;;;;;;5070688;28;20024;-57
2023/01/17 04:32:50;;;;;;;2.28;0.77;;;4.50;99.90;;;;;;5070944;28;20056;-61
2023/01/17 04:35:15;;;;;;;1.88;0.68;;;4.30;99.90;;;;;;5070878;28;20044;-64
2023/01/17 04:37:41;;;;;;;1.42;0.77;;;4.20;99.90;;;;;;5071127;28;20116;-63
2023/01/17 04:40:08;;;;;;;0.90;0.70;;;4.30;99.90;;;;;;5061980;28;20036;-60
2023/01/17 04:42:34;;;;;;;1.60;0.70;;;4.30;99.90;;;;;;5050693;28;20484;-62
2023/01/17 04:44:59;;;;;;;1.08;0.70;;;4.30;99.90;;;;;;5050672;28;20035;-63
2023/01/17 04:47:25;;;;;;;0.65;0.50;;;4.30;99.90;;;;;;5051233;28;20036;-63
2023/01/17 04:49:51;;;;;;;1.42;0.77;;;4.60;99.90;;;;;;5050736;28;20082;-64
2023/01/17 04:52:18;;;;;;;1.58;0.68;;;4.30;99.90;;;;;;5050431;28;20048;-64
2023/01/17 04:54:44;;;;;;;1.38;0.55;;;4.30;99.90;;;;;;5050552;28;20554;-63
2023/01/17 04:57:10;;;;;;;1.20;0.52;;;4.30;99.90;;;;;;5051636;28;20045;-63
2023/01/17 04:59:35;;;;;;;1.02;0.50;;;4.30;99.90;;;;;;5050677;28;20025;-62
2023/01/17 05:02:01;;;;;;;0.90;0.70;;;4.30;99.90;;;;;;5050425;28;20025;-61
2023/01/17 05:04:26;;;;;;;1.15;0.82;;;4.50;99.90;;;;;;5050314;28;20025;-64
2023/01/17 05:06:52;;;;;;;0.60;0.50;;;4.40;99.90;;;;;;5060299;28;20472;-63
2023/01/17 05:09:18;;;;;;;1.02;0.60;;;4.40;99.90;;;;;;5090982;28;20043;-64
2023/01/17 05:11:43;;;;;;;0.85;0.40;;;4.40;99.90;;;;;;5065106;28;20048;-64
2023/01/17 05:14:09;;;;;;;0.50;0.50;;;4.50;99.90;;;;;;5056174;28;20033;-65
2023/01/17 05:16:35;;;;;;;0.40;0.40;;;4.50;99.90;;;;;;5059457;28;20071;-64
2023/01/17 05:19:01;;;;;;;0.50;0.50;;;4.50;99.90;;;;;;5053435;28;20028;-63
2023/01/17 05:21:26;;;;;;;0.98;0.85;;;4.50;99.90;;;;;;5054321;28;20119;-64
2023/01/17 05:23:52;;;;;;;0.95;0.68;;;4.40;99.90;;;;;;5059481;28;20024;-64
2023/01/17 05:26:18;;;;;;;1.63;0.80;;;4.50;99.90;;;;;;5061798;28;20020;-63
2023/01/17 05:28:44;;;;;;;1.20;0.65;;;4.50;99.90;;;;;;5060754;28;20025;-64
2023/01/17 05:31:09;;;;;;;2.22;1.02;;;4.40;99.90;;;;;;5062009;28;20388;-60
2023/01/17 05:33:35;;;;;;;1.25;0.63;;;4.40;99.90;;;;;;5056578;28;20100;-64
2023/01/17 05:36:02;;;;;;;0.70;0.70;;;4.40;99.90;;;;;;5064977;28;20373;-63
2023/01/17 05:38:28;;;;;;;1.10;0.90;;;4.40;99.90;;;;;;5052744;28;20051;-63
2023/01/17 05:40:54;;;;;;;0.90;0.70;;;4.50;99.90;;;;;;5062411;28;20432;-64
2023/01/17 05:43:20;;;;;;;0.90;0.60;;;4.60;99.90;;;;;;5058762;28;20035;-61
2023/01/17 05:45:48;;;;;;;0.75;0.60;;;4.50;99.90;;;;;;5061710;28;20047;-64
2023/01/17 05:48:14;;;;;;;0.90;0.60;;;4.50;99.90;;;;;;5052347;28;20021;-64
2023/01/17 05:50:39;;;;;;;6.38;1.15;;;4.70;99.90;;;;;;5063413;28;20016;-63
2023/01/17 05:53:08;;;;;;;0.77;0.70;;;4.40;99.90;;;;;;5057477;28;20446;-64
2023/01/17 05:55:35;;;;;;;2.78;0.80;;;4.50;99.90;;;;;;5055708;28;20032;-62
2023/01/17 05:58:01;;;;;;;1.60;1.20;;;4.90;99.90;;;;;;5066336;28;20024;-60
2023/01/17 06:00:27;;;;;;;0.60;0.60;;;4.60;99.90;;;;;;5065939;28;20017;-63
2023/01/17 06:02:55;;;;;;;2.10;1.02;;;4.60;99.90;;;;;;5049802;28;20029;-66
2023/01/17 06:05:21;;;;;;;0.82;0.80;;;4.50;99.90;;;;;;5057392;28;20499;-60
2023/01/17 06:07:47;;;;;;;3.03;0.60;;;4.50;99.90;;;;;;5069551;28;20102;-63
2023/01/17 06:10:14;;;;;;;1.70;1.23;;;4.50;99.90;;;;;;5051846;28;20033;-64
2023/01/17 06:12:40;;;;;;;1.67;0.88;;;4.50;99.90;;;;;;5062198;28;20025;-63
2023/01/17 06:15:07;;;;;;;0.88;0.80;;;4.40;99.90;;;;;;5057248;28;20036;-64
2023/01/17 06:17:33;;;;;;;1.30;0.80;;;4.50;99.90;;;;;;5056097;28;20107;-65
2023/01/17 06:19:59;;;;;;;1.10;1.00;;;4.40;99.90;;;;;;5064443;28;20036;-60
2023/01/17 06:22:24;;;;;;;1.20;1.00;;;4.40;99.90;;;;;;5051901;28;20055;-63
2023/01/17 06:24:50;;;;;;;1.63;0.93;;;4.40;99.90;;;;;;5061369;28;20508;-61
2023/01/17 06:27:15;;;;;;;1.17;1.02;;;4.40;99.90;;;;;;5058780;28;20033;-66
2023/01/17 06:29:41;;;;;;;1.48;0.90;;;4.40;99.90;;;;;;5054513;28;20467;-64
2023/01/17 06:32:07;;;;;;;1.10;0.90;;;4.40;99.90;;;;;;5063542;28;20451;-65
2023/01/17 06:34:32;;;;;;;1.30;0.73;;;4.30;99.90;;;;;;5052211;28;20012;-58
2023/01/17 06:36:58;;;;;;;1.05;0.95;;;4.30;99.90;;;;;;5059743;28;20120;-59
2023/01/17 06:39:24;;;;;;;1.33;1.02;;;4.30;99.90;;;;;;5052693;28;20024;-63
2023/01/17 06:41:50;;;;;;;1.92;1.40;;;4.40;99.90;;;;;;5060454;28;20059;-65
2023/01/17 06:44:15;;;;;;;2.00;1.40;;;4.30;99.90;;;;;;5063541;28;20447;-63
2023/01/17 06:46:42;;;;;;;1.63;1.42;;;4.30;99.90;;;;;;5051939;28;20569;-65
2023/01/17 06:49:07;;;;;;;1.80;1.30;;;4.30;99.90;;;;;;5056439;28;20040;-64
2023/01/17 06:51:33;;;;;;;2.20;1.30;;;4.40;99.90;;;;;;5053356;28;20033;-66
2023/01/17 06:53:58;;;;;;;1.55;1.33;;;4.40;99.90;;;;;;5063293;28;20027;-64
2023/01/17 06:56:24;;;;;;;2.40;1.42;;;4.30;99.90;;;;;;5050772;28;20020;-66
2023/01/17 06:58:50;;;;;;;2.38;1.30;;;4.30;99.90;;;;;;5064628;28;20091;-62
2023/01/17 07:01:17;;;;;;;6.15;1.33;;;4.30;99.90;;;;;;5057200;28;20048;-65
2023/01/17 07:03:43;;;;;;;2.00;1.52;;;4.30;99.90;;;;;;5060126;28;20511;-62
2023/01/17 07:06:09;;;;;;;1.48;1.00;;;4.30;99.90;;;;;;5051179;28;20029;-64
2023/01/17 07:08:35;;;;;;;1.33;1.10;;;4.60;99.90;;;;;;5081850;28;20096;-64
2023/01/17 07:11:03;;;;;;;1.45;1.27;;;4.30;99.90;;;;;;5058612;28;20017;-61
2023/01/17 07:13:32;;;;;;;5.07;1.65;;;4.30;99.90;;;;;;5057951;28;20749;-63
2023/01/17 07:16:00;;;;;;;4.78;1.15;;;4.20;99.90;;;;;;5051158;28;20486;-65
2023/01/17 07:18:26;;;;;;;1.48;1.35;;;4.30;99.90;;;;;;5062981;28;20595;-65
2023/01/17 07:20:52;;;;;;;2.05;1.70;;;4.30;99.90;;;;;;5049083;28;20111;-63
2023/01/17 07:23:19;;;;;;;2.08;1.27;;;4.30;99.90;;;;;;5056707;28;20029;-63
2023/01/17 07:25:59;;;;;;;3.75;1.20;;;4.30;99.90;;;;;;5057086;28;20544;-62
2023/01/17 07:28:26;;;;;;;1.65;1.30;;;4.30;99.90;;;;;;5062548;28;20481;-64
2023/01/17 07:30:52;;;;;;;2.85;1.40;;;4.20;99.90;;;;;;5048266;28;20419;-60
2023/01/17 07:33:18;;;;;;;1.63;1.30;;;4.20;99.90;;;;;;5056637;28;20115;-64
2023/01/17 07:35:44;;;;;;;1.77;1.35;;;4.30;99.90;;;;;;5053524;28;20032;-62
2023/01/17 07:38:14;;;;;;;2.20;1.40;;;4.10;99.90;;;;;;5056708;28;20025;-64
2023/01/17 07:40:40;;;;;;;2.70;1.50;;;4.10;99.90;;;;;;5056235;28;20124;-61
2023/01/17 07:43:12;;;;;;;2.50;1.67;;;4.10;99.90;;;;;;5053126;28;20051;-63
2023/01/17 07:45:50;;;;;;;1.80;1.30;;;4.00;99.90;;;;;;5054196;28;20403;-65
2023/01/17 07:48:19;;;;;;;1.63;1.30;;;4.00;99.90;;;;;;5056173;28;20111;-66
2023/01/17 07:50:51;;;;;;;1.48;1.38;;;4.10;99.90;;;;;;5054679;28;20036;-63
2023/01/17 07:53:16;;;;;;;1.70;1.38;;;4.20;99.90;;;;;;5056178;28;20091;-59
2023/01/17 07:55:43;;;;;;;1.58;1.00;;;4.20;99.90;;;;;;5060682;28;20029;-63
2023/01/17 07:58:10;;;;;;;2.30;1.50;;;4.30;99.90;;;;;;5056499;28;20031;-59
2023/01/17 08:00:36;;;;;;;1.65;1.40;;;4.30;99.90;;;;;;5061731;28;20467;-64
2023/01/17 08:03:01;;;;;;;1.92;1.35;;;4.30;99.90;;;;;;5059556;28;20056;-63
2023/01/17 08:05:29;;;;;;;2.92;1.35;;;4.30;99.90;;;;;;5047394;28;20060;-65
2023/01/17 08:07:55;;;;;;;2.00;1.27;;;4.30;99.90;;;;;;5059538;28;20028;-64
2023/01/17 08:10:21;;;;;;;3.30;1.27;;;4.30;99.90;;;;;;5052363;28;20035;-66
2023/01/17 08:12:48;;;;;;;2.00;0.95;;;4.30;99.90;;;;;;5059664;28;20112;-61
2023/01/17 08:15:16;;;;;;;4.78;2.40;;;4.40;99.90;;;;;;5043589;22;20513;-65
2023/01/17 08:17:51;;;;;;;2.90;1.30;;;4.40;99.90;;;;;;5020443;28;20030;-67
2023/01/17 08:20:18;;;;;;;1.52;1.02;;;4.50;99.90;;;;;;5007751;28;20099;-67
2023/01/17 08:22:44;;;;;;;1.58;0.90;;;4.60;99.90;;;;;;5020382;28;20049;-67
2023/01/17 08:25:09;;;;;;;1.63;1.00;;;4.60;99.90;;;;;;5018028;28;20056;-64
2023/01/17 08:27:35;;;;;;;1.42;1.00;;;4.60;99.90;;;;;;5014575;28;20037;-66
2023/01/17 08:30:01;;;;;;;1.90;1.10;;;4.60;99.90;;;;;;5021734;28;20409;-66
2023/01/17 08:32:26;;;;;;;1.67;1.05;;;5.10;99.90;;;;;;5010225;28;20017;-68
2023/01/17 08:34:52;;;;;;;2.10;1.10;;;4.60;99.90;;;;;;5019367;28;20695;-67
2023/01/17 08:37:18;;;;;;;0.98;0.77;;;4.60;99.90;;;;;;5014904;28;20025;-64
2023/01/17 08:39:44;;;;;;;1.00;0.88;;;4.80;99.90;;;;;;5013608;28;20049;-66
2023/01/17 08:42:09;;;;;;;1.58;0.93;;;4.70;99.90;;;;;;5017102;28;20119;-66
2023/01/17 08:44:35;;;;;;;3.38;1.23;;;4.60;99.90;;;;;;5010818;28;20049;-65
2023/01/17 08:47:01;;;;;;;1.52;1.10;;;4.70;99.90;;;;;;5025195;28;20029;-67
2023/01/17 08:49:27;;;;;;;1.02;0.70;;;4.60;99.90;;;;;;5024172;28;20557;-67
2023/01/17 08:51:52;;;;;;;1.40;0.90;;;4.60;99.90;;;;;;5012894;28;20026;-66
2023/01/17 08:54:18;;;;;;;1.48;0.80;;;4.70;99.90;;;;;;5022366;28;20029;-67
2023/01/17 08:56:45;;;;;;;1.60;1.20;;;4.60;99.90;;;;;;5011880;28;20037;-67
2023/01/17 08:59:12;;;;;;;1.60;0.93;;;4.60;99.90;;;;;;5017820;28;20107;-67
2023/01/17 09:01:40;;;;;;;3.60;1.00;;;4.60;99.90;;;;;;5022293;28;20501;-67
2023/01/17 09:04:07;;;;;;;2.38;0.80;;;4.60;99.90;;;;;;5010702;28;20809;-65
2023/01/17 09:06:36;;;;;;;1.92;0.70;;;4.60;99.90;;;;;;5027030;28;20109;-67
2023/01/17 09:09:02;;;;;;;2.85;0.80;;;4.60;99.90;;;;;;5016675;28;20397;-65
2023/01/17 09:11:28;;;;;;;1.58;0.90;;;4.60;99.90;;;;;;5018301;28;20029;-66
2023/01/17 09:13:53;;;;;;;1.70;1.02;;;4.50;99.90;;;;;;5024942;28;20108;-68
2023/01/17 09:16:19;;;;;;;2.17;0.80;;;4.50;99.90;;;;;;5012972;28;20037;-66
2023/01/17 09:18:45;;;;;;;0.90;0.60;;;4.50;99.90;;;;;;5030151;28;20582;-66
2023/01/17 09:21:13;;;;;;;0.98;0.70;;;4.60;99.90;;;;;;5028239;28;20049;-67
2023/01/17 09:23:40;;;;;;;1.60;0.63;;;4.60;99.90;;;;;;5016442;28;20087;-64
2023/01/17 09:26:06;;;;;;;1.25;0.68;;;4.70;99.90;;;;;;5027109;28;20608;-67
2023/01/17 09:28:39;;;;;;;1.52;0.70;;;4.70;99.90;;;;;;5012915;28;20025;-67
2023/01/17 09:31:08;;;;;;;0.70;0.40;;;4.60;99.90;;;;;;5021133;28;20560;-66
2023/01/17 09:33:40;;;;;;;0.60;0.40;;;4.60;99.90;;;;;;5019416;28;20025;-65
2023/01/17 09:36:06;;;;;;;2.00;0.50;;;4.70;99.90;;;;;;5029513;28;20106;-67
2023/01/17 09:38:32;;;;;;;0.80;0.50;;;4.80;99.90;;;;;;5013538;28;20108;-66
2023/01/17 09:40:58;;;;;;;0.88;0.30;;;4.70;99.90;;;;;;5022007;28;20032;-67
2023/01/17 09:43:36;;;;;;;0.68;0.40;;;4.70;99.90;;;;;;5020667;28;20532;-69
2023/01/17 09:46:08;;;;;;;3.75;1.00;;;4.70;99.90;;;;;;5013983;28;20051;-66
2023/01/17 09:48:37;;;;;;;0.90;0.30;;;4.80;99.90;;;;;;5025473;28;20022;-66
2023/01/17 09:51:17;;;;;;;0.52;0.40;;;4.80;99.90;;;;;;5023987;28;20083;-66
2023/01/17 09:53:43;;;;;;;0.93;0.40;;;4.60;99.90;;;;;;5028578;28;20512;-65
2023/01/17 09:56:21;;;;;;;0.45;0.38;;;4.60;99.90;;;;;;5012991;28;20120;-63
2023/01/17 09:58:56;;;;;;;0.47;0.30;;;4.60;99.90;;;;;;5023474;28;20026;-65
2023/01/17 10:01:30;;;;;;;;;;;4.60;99.90;;;;;;5020572;28;20519;-66
2023/01/17 10:04:02;;;;;;;6.45;0.57;;;4.60;99.90;;;;;;5014196;28;19955;-66
2023/01/17 10:07:02;;;;;;;0.55;0.30;;;4.70;99.90;;;;;;5024771;28;20194;-65
2023/01/17 10:09:54;;;;;;;0.82;0.75;;;4.70;99.90;;;;;;5020476;28;20018;-66
2023/01/17 10:12:43;;;;;;;0.50;0.50;;;4.70;99.90;;;;;;5012798;28;20283;-66
2023/01/17 10:15:32;;;;;;;1.20;0.50;;;4.80;99.90;;;;;;5018824;28;20052;-68
2023/01/17 10:18:21;;;;;;;1.15;0.30;;;4.70;99.90;;;;;;5024484;28;20422;-67
2023/01/17 10:21:03;;;;;;;2.63;0.40;;;4.70;99.90;;;;;;5015466;28;20020;-65
2023/01/17 10:23:55;;;;;;;2.58;0.30;;;4.70;99.90;;;;;;5027792;28;20060;-63
2023/01/17 10:26:24;;;;;;;1.45;0.40;;;4.70;99.90;;;;;;4986810;28;20401;-63
2023/01/17 10:28:53;;;;;;;1.00;0.40;;;4.60;99.90;;;;;;5021836;28;20469;-65
2023/01/17 10:31:23;;;;;;;1.20;0.40;;;4.50;99.90;;;;;;5019649;28;20497;-63
2023/01/17 10:33:54;;;;;;;1.10;0.47;;;4.40;99.90;;;;;;5014206;28;20494;-66
2023/01/17 10:36:28;;;;;;;1.10;0.30;;;4.40;99.90;;;;;;5024585;28;20025;-65
2023/01/17 10:39:10;;;;;;;2.25;0.30;;;4.30;99.90;;;;;;5014708;28;20017;-67
2023/01/17 10:41:40;;;;;;;1.55;0.40;;;4.20;99.90;;;;;;5028283;28;20025;-66
2023/01/17 10:44:19;;;;;;;2.20;0.20;;;4.30;99.90;;;;;;5011600;28;20485;-68
2023/01/17 10:47:08;;;;;;;2.95;0.55;;;4.20;99.90;;;;;;5022318;28;20052;-67
2023/01/17 10:49:38;;;;;;;1.02;0.40;;;4.20;99.90;;;;;;5012992;28;20072;-67
2023/01/17 10:52:22;;;;;;;0.20;0.20;;;4.30;99.90;;;;;;5011135;28;20066;-65
2023/01/17 10:55:07;;;;;;;2.93;0.40;;;4.20;99.90;;;;;;5024480;28;20089;-68
2023/01/17 10:57:39;;;;;;;3.70;0.32;;;4.20;99.90;;;;;;5029432;28;20853;-65
2023/01/17 11:00:29;;;;;;;0.82;0.30;;;4.10;99.90;;;;;;5013518;28;20477;-66
2023/01/17 11:02:54;;;;;;;0.82;0.20;;;4.10;99.90;;;;;;5020832;28;20054;-67
2023/01/17 11:05:27;;;;;;;2.58;0.60;;;4.50;99.90;;;;;;5018841;28;20065;-64
2023/01/17 11:08:04;;;;;;;1.42;0.30;;;4.30;99.90;;;;;;5013053;28;20022;-66
2023/01/17 11:10:43;;;;;;;1.65;0.50;;;4.10;99.90;;;;;;5011515;28;20668;-66
2023/01/17 11:13:33;;;;;;;0.30;0.25;;;4.00;99.90;;;;;;5027382;28;20030;-67
2023/01/17 11:16:05;;;;;;;1.23;0.55;;;3.90;99.90;;;;;;5011830;28;20033;-63
2023/01/17 11:18:34;;;;;;;1.10;0.30;;;3.90;99.90;;;;;;5012531;28;20144;-66
2023/01/17 11:21:12;;;;;;;3.00;0.38;;;2.30;99.90;;;;;;5021558;28;20033;-66
2023/01/17 11:23:41;;;;;;;3.53;0.30;;;3.90;99.90;;;;;;5020731;28;20242;-67
2023/01/17 11:26:11;;;;;;;1.35;0.50;;;3.70;99.90;;;;;;5010840;28;20063;-66
2023/01/17 11:28:39;;;;;;;0.50;0.30;;;3.60;99.90;;;;;;5026643;28;20025;-62
2023/01/17 11:31:27;;;;;;;1.08;0.55;;;3.50;99.90;;;;;;5018405;28;20025;-67
2023/01/17 11:34:16;;;;;;;1.70;0.40;;;3.50;99.90;;;;;;5021180;28;20033;-64
2023/01/17 11:36:42;;;;;;;8.60;0.63;;;3.30;99.90;;;;;;5012255;28;20108;-64
2023/01/17 11:39:16;;;;;;;1.30;0.40;;;3.30;99.90;;;;;;5017847;28;20112;-65
2023/01/17 11:41:44;;;;;;;0.95;0.35;;;3.20;99.90;;;;;;5020295;28;20401;-65
2023/01/17 11:44:29;;;;;;;1.33;0.35;;;3.10;99.90;;;;;;5011434;28;20176;-64
2023/01/17 11:47:13;;;;;;;1.70;0.40;;;3.10;99.90;;;;;;5026961;28;20139;-63
2023/01/17 11:49:43;;;;;;;1.00;0.47;;;3.00;99.90;;;;;;5026768;28;20025;-64
2023/01/17 11:52:32;;;;;;;2.10;0.70;;;2.90;99.90;;;;;;5008946;28;20034;-62
2023/01/17 11:54:58;;;;;;;3.65;0.70;;;3.00;99.90;;;;;;5018937;28;20025;-66
2023/01/17 11:57:26;;;;;;;5.20;0.60;;;3.10;99.90;;;;;;5018234;28;20029;-62
2023/01/17 12:00:02;;;;;;;2.55;0.73;;;3.10;99.90;;;;;;5026175;28;20026;-64
2023/01/17 12:02:43;;;;;;;1.90;0.70;;;3.20;99.90;;;;;;5009983;28;20033;-66
2023/01/17 12:05:47;;;;;;;4.38;2.30;;;3.20;99.90;;;;;;5017726;28;20088;-64
2023/01/17 12:08:40;;;;;;;2.85;1.10;;;3.20;99.90;;;;;;5022492;28;20084;-66
2023/01/17 12:11:21;;;;;;;1.73;0.95;;;3.10;99.90;;;;;;5019027;28;20056;-65
2023/01/17 12:14:18;;;;;;;4.20;0.90;;;3.30;99.90;;;;;;5030513;28;20030;-65
2023/01/17 12:17:17;;;;;;;1.48;1.02;;;3.40;99.90;;;;;;5012760;28;20018;-65
2023/01/17 12:20:19;;;;;;;3.15;0.90;;;3.70;99.90;;;;;;5012032;28;20137;-66
2023/01/17 12:22:59;;;;;;;5.72;0.90;;;4.10;99.90;;;;;;5011558;28;20537;-65
2023/01/17 12:25:37;;;;;;;3.85;0.80;;;4.30;99.90;;;;;;5014424;28;20030;-66
2023/01/17 12:28:06;;;;;;;1.98;0.82;;;4.40;99.90;;;;;;5022218;28;20115;-66
2023/01/17 12:31:16;;;;;;;1.40;0.80;;;4.40;99.90;;;;;;5010683;28;20025;-62
2023/01/17 12:33:55;;;;;;;0.98;0.60;;;4.30;99.90;;;;;;4989721;28;20073;-64
2023/01/17 12:36:38;;;;;;;5.63;1.10;;;4.20;99.90;;;;;;5022969;28;20049;-63
2023/01/17 12:39:10;;;;;;;3.88;0.80;;;4.20;99.90;;;;;;5013786;28;20456;-64
2023/01/17 12:42:13;;;;;;;0.75;0.60;;;4.50;99.90;;;;;;5023905;28;20033;-64
2023/01/17 12:45:09;;;;;;;1.30;0.68;;;4.30;99.90;;;;;;5011228;28;20105;-65
2023/01/17 12:47:41;;;;;;;7.45;0.60;;;4.30;99.90;;;;;;5015675;28;20061;-65
2023/01/17 12:50:36;;;;;;;1.50;0.50;;;4.10;99.90;;;;;;5025783;28;20032;-67
2023/01/17 12:53:34;;;;;;;0.85;0.40;;;4.20;99.90;;;;;;5018492;28;20029;-68
2023/01/17 12:56:08;;;;;;;1.52;0.57;;;4.10;99.90;;;;;;5024433;28;20060;-68
2023/01/17 12:58:39;;;;;;;3.95;0.52;;;4.10;99.90;;;;;;5024716;28;20060;-67
2023/01/17 13:01:17;;;;;;;4.55;0.60;;;4.10;99.90;;;;;;5022181;28;20029;-66
2023/01/17 13:04:17;;;;;;;3.35;0.50;;;4.10;99.90;;;;;;5025299;28;20052;-65
2023/01/17 13:06:57;;;;;;;4.53;0.40;;;4.00;99.90;;;;;;5017238;28;20385;-67
2023/01/17 13:09:23;;;;;;;1.55;0.45;;;4.00;99.90;;;;;;5030822;28;20028;-65
2023/01/17 13:12:06;;;;;;;4.90;0.77;;;4.00;99.90;;;;;;5029387;28;20033;-65
2023/01/17 13:14:32;;;;;;;4.00;0.70;;;3.90;99.90;;;;;;5013235;28;20018;-66
2023/01/17 13:17:01;;;;;;;1.48;0.60;;;4.00;99.90;;;;;;5021473;28;20087;-63
2023/01/17 13:19:27;;;;;;;2.75;0.52;;;4.10;99.90;;;;;;5018903;28;20343;-63
2023/01/17 13:21:55;;;;;;;3.30;0.70;;;4.20;99.90;;;;;;5011347;28;20029;-69
2023/01/17 13:24:32;;;;;;;2.38;0.73;;;4.00;99.90;;;;;;5021774;28;20030;-64
2023/01/17 13:27:16;;;;;;;3.17;0.60;;;4.00;99.90;;;;;;5014082;28;20057;-66
2023/01/17 13:30:14;;;;;;;2.58;0.55;;;4.00;99.90;;;;;;5012224;28;20077;-66
2023/01/17 13:33:14;;;;;;;2.38;0.40;;;3.80;99.90;;;;;;5010354;28;20018;-64
2023/01/17 13:35:45;;;;;;;7.13;0.85;;;3.60;99.90;;;;;;5012757;28;20505;-67
2023/01/17 13:38:54;;;;;;;5.15;1.05;;;3.60;99.90;;;;;;5022423;28;20484;-67
2023/01/17 13:41:46;;;;;;;2.40;0.77;;;3.70;99.90;;;;;;5007232;28;20059;-66
2023/01/17 13:44:20;;;;;;;16.23;0.93;;;3.80;99.90;;;;;;5019240;28;20060;-66
2023/01/17 13:46:59;;;;;;;3.23;0.70;;;3.80;99.90;;;;;;5012151;28;20026;-63
2023/01/17 13:49:25;;;;;;;6.63;0.95;;;3.90;99.90;;;;;;5014114;28;20053;-63
2023/01/17 13:52:09;;;;;;;1.80;0.60;;;5.20;99.90;;;;;;5022716;28;20048;-66
2023/01/17 13:54:45;;;;;;;6.05;0.60;;;4.10;99.90;;;;;;5023612;28;20030;-64
2023/01/17 13:57:27;;;;;;;3.80;0.73;;;3.90;99.90;;;;;;5019946;28;20076;-68
2023/01/17 13:59:54;;;;;;;4.25;0.80;;;4.00;99.90;;;;;;5024152;28;20114;-64
2023/01/17 14:02:31;;;;;;;1.88;0.50;;;4.10;99.90;;;;;;5012833;28;20144;-67
2023/01/17 14:05:20;;;;;;;4.00;0.57;;;4.10;99.90;;;;;;5021735;28;20034;-66
2023/01/17 14:07:57;;;;;;;10.35;0.70;;;4.10;99.90;;;;;;5022347;28;20505;-62
2023/01/17 14:10:37;;;;;;;3.10;0.90;;;4.10;99.90;;;;;;5012653;28;20018;-63
2023/01/17 14:13:23;;;;;;;4.75;0.70;;;4.00;99.90;;;;;;5020688;28;20065;-62
2023/01/17 14:15:50;;;;;;;2.53;0.75;;;4.00;99.90;;;;;;5012165;28;20129;-64
2023/01/17 14:18:37;;;;;;;9.32;1.42;;;4.10;99.90;;;;;;5013962;28;20344;-64
2023/01/17 14:21:06;;;;;;;3.53;0.98;;;4.00;99.90;;;;;;5014073;28;20456;-66
2023/01/17 14:23:50;;;;;;;2.95;0.70;;;4.00;99.90;;;;;;5033541;28;20032;-66
2023/01/17 14:26:21;;;;;;;1.85;0.60;;;3.90;99.90;;;;;;5033148;28;20103;-67
2023/01/17 14:28:47;;;;;;;2.78;0.70;;;3.90;99.90;;;;;;5031849;28;20032;-67
2023/01/17 14:31:15;;;;;;;4.50;1.05;;;4.00;99.90;;;;;;5030832;28;20022;-65
2023/01/17 14:33:41;;;;;;;7.03;1.10;;;4.00;99.90;;;;;;5030579;28;20045;-66
2023/01/17 14:36:22;;;;;;;6.60;0.70;;;4.10;99.90;;;;;;5030219;28;20107;-65
2023/01/17 14:38:47;;;;;;;7.28;0.60;;;4.00;99.90;;;;;;5029309;28;20033;-63
2023/01/17 14:41:19;;;;;;;6.15;0.90;;;4.00;99.90;;;;;;5030828;28;20413;-67